Time;durP1;ratioP1;P1;durP2;ratioP2;P2;SDS_P1;SDS_P2;PMS_P1;PMS_P2;Temp;Humidity;BMP_temperature;BMP_pressure;BME280_temperature;BME280_humidity;BME280_pressure;Samples;Min_cycle;Max_cycle;Signal;HPM_P1;HPM_P2
2021/05/30 08:42:28;;;;;;;2.35;2.05;;;19.30;53.60;;;17.07;100.00;101358.00;4999640;28;20242;-61
2021/05/30 08:44:54;;;;;;;1.92;1.77;;;19.30;53.20;;;17.39;100.00;101353.47;5006153;28;20260;-61
2021/05/30 08:47:22;;;;;;;3.45;1.92;;;19.30;53.00;;;17.50;100.00;101350.38;5001829;28;20226;-60
2021/05/30 08:49:50;;;;;;;2.83;2.03;;;19.40;52.80;;;17.51;100.00;101354.75;5006675;28;20230;-61
2021/05/30 08:52:17;;;;;;;2.47;1.90;;;19.50;52.10;;;17.81;100.00;101356.63;4998646;28;20864;-60
2021/05/30 08:54:44;;;;;;;3.30;2.28;;;19.60;52.30;;;17.88;100.00;101356.78;5005542;28;20245;-61
2021/05/30 08:57:10;;;;;;;3.58;2.05;;;19.80;51.80;;;16.72;100.00;101355.72;5003667;28;20734;-61
2021/05/30 08:59:39;;;;;;;2.47;1.88;;;19.90;50.50;;;16.95;100.00;101353.13;4987446;28;20445;-60
2021/05/30 09:02:10;;;;;;;3.33;2.03;;;20.00;50.30;;;17.42;100.00;101348.56;4983129;28;20509;-60
2021/05/30 09:04:39;;;;;;;3.17;2.10;;;20.10;50.40;;;17.54;100.00;101359.84;4984890;28;20561;-61
2021/05/30 09:07:06;;;;;;;3.03;2.10;;;20.20;50.50;;;17.52;100.00;101360.00;4994595;28;20242;-62
2021/05/30 09:09:38;;;;;;;2.58;1.83;;;20.40;50.40;;;17.63;100.00;101369.63;4957990;28;20504;-61
2021/05/30 09:12:10;;;;;;;2.50;2.00;;;20.60;50.20;;;17.14;100.00;101364.41;4977200;28;20842;-61
2021/05/30 09:14:46;;;;;;;2.50;1.80;;;20.70;48.30;;;16.11;100.00;101360.66;5005602;28;20331;-61
2021/05/30 09:17:12;;;;;;;2.53;2.03;;;20.80;48.00;;;17.36;100.00;101362.78;5001345;28;20231;-61
2021/05/30 09:19:46;;;;;;;2.53;1.95;;;20.70;48.60;;;16.62;100.00;101364.03;5005840;28;20226;-61
2021/05/30 09:22:35;;;;;;;3.55;2.08;;;20.70;49.00;;;16.09;100.00;101357.25;4989316;28;20237;-61
2021/05/30 09:25:26;;;;;;;2.28;1.83;;;20.60;47.60;;;17.05;100.00;101357.34;5000148;28;20512;-61
2021/05/30 09:28:00;;;;;;;2.03;1.80;;;20.50;49.30;;;17.16;100.00;101358.81;4984767;28;20441;-62
2021/05/30 09:30:39;;;;;;;2.22;1.90;;;20.50;49.00;;;17.79;100.00;101352.44;5003063;28;20564;-62
2021/05/30 09:33:17;;;;;;;2.22;1.63;;;20.60;49.50;;;17.68;100.00;101359.09;4977796;28;20341;-62
2021/05/30 09:35:53;;;;;;;4.25;1.88;;;20.80;49.30;;;17.37;100.00;101358.22;4998205;28;20510;-61
2021/05/30 09:38:27;;;;;;;3.03;1.98;;;20.90;49.40;;;17.40;100.00;101353.31;5001879;28;20218;-61
2021/05/30 09:40:56;;;;;;;2.10;1.90;;;21.00;49.40;;;16.12;100.00;101367.75;4983060;28;20289;-62
2021/05/30 09:43:25;;;;;;;3.50;2.38;;;21.00;48.80;;;15.86;100.00;101379.69;5002894;28;21070;-61
2021/05/30 09:46:13;;;;;;;2.15;1.63;;;20.80;48.90;;;16.84;100.00;101368.72;4996071;28;20742;-62
2021/05/30 09:48:43;;;;;;;2.75;1.42;;;20.60;49.60;;;16.81;100.00;101370.94;4999489;28;20244;-61
2021/05/30 09:51:37;;;;;;;2.50;1.60;;;20.50;49.20;;;16.09;100.00;101369.91;5002222;28;20222;-61
2021/05/30 09:54:06;;;;;;;2.78;2.13;;;20.50;48.90;;;16.47;100.00;101369.25;5000366;28;20328;-62
2021/05/30 09:56:40;;;;;;;4.50;2.50;;;20.30;48.80;;;17.17;100.00;101374.03;4990827;28;20231;-61
2021/05/30 09:59:09;;;;;;;3.15;2.42;;;20.20;51.10;;;16.51;100.00;101376.00;4980459;28;20237;-60
2021/05/30 10:01:58;;;;;;;4.78;2.42;;;20.20;51.40;;;16.75;100.00;101371.59;5001546;28;20530;-61
2021/05/30 10:04:27;;;;;;;2.38;1.95;;;20.20;51.60;;;16.29;100.00;101371.28;5002017;28;21163;-61
2021/05/30 10:06:56;;;;;;;2.35;2.03;;;20.20;50.90;;;17.50;100.00;101375.56;4992623;28;20517;-61
2021/05/30 10:09:23;;;;;;;3.13;1.98;;;20.30;52.10;;;16.44;100.00;101377.69;5004375;28;20325;-61
2021/05/30 10:11:50;;;;;;;3.63;2.33;;;20.40;50.90;;;15.54;100.00;101375.03;4992013;28;20258;-60
2021/05/30 10:14:17;;;;;;;2.60;2.10;;;20.40;49.90;;;15.93;100.00;101373.47;5004911;28;20518;-61
2021/05/30 10:16:44;;;;;;;2.70;2.35;;;20.20;50.70;;;16.27;100.00;101370.63;4992444;28;20255;-61
2021/05/30 10:19:17;;;;;;;2.15;1.80;;;20.20;51.40;;;16.35;100.00;101377.84;4997637;28;21113;-61
2021/05/30 10:21:48;;;;;;;2.58;2.10;;;20.20;50.80;;;17.09;100.00;101377.59;4995018;28;20655;-61
2021/05/30 10:24:16;;;;;;;2.83;2.22;;;20.20;51.90;;;15.67;100.00;101381.69;5005123;28;20558;-61
2021/05/30 10:26:43;;;;;;;4.82;1.70;;;20.20;50.50;;;16.88;100.00;101380.88;4994880;28;20265;-61
2021/05/30 10:29:12;;;;;;;2.30;2.10;;;20.20;51.70;;;16.28;100.00;101393.06;4992146;28;20958;-61
2021/05/30 10:31:41;;;;;;;2.50;1.75;;;20.10;51.50;;;16.67;100.00;101385.16;5004469;28;20606;-61
2021/05/30 10:34:23;;;;;;;2.40;1.77;;;20.00;51.70;;;15.73;100.00;101382.84;4999818;28;20259;-61
2021/05/30 10:37:25;;;;;;;2.83;1.80;;;19.90;51.30;;;15.61;100.00;101386.88;4988266;28;20238;-61
2021/05/30 10:39:55;;;;;;;2.38;1.80;;;19.70;51.90;;;15.87;100.00;101384.06;4992122;28;20689;-60
2021/05/30 10:42:25;;;;;;;2.42;1.73;;;19.40;52.40;;;15.55;100.00;101383.00;4968027;28;20998;-60
2021/05/30 10:44:58;;;;;;;2.63;2.00;;;19.20;52.70;;;16.44;100.00;101384.97;4987624;28;20221;-63
2021/05/30 10:48:17;;;;;;;2.92;1.90;;;19.00;54.00;;;16.12;100.00;101381.22;4996242;28;20494;-61
2021/05/30 10:54:12;;;;;;;1.80;1.70;;;19.10;53.20;;;15.97;100.00;101380.19;4966546;28;20231;-61
2021/05/30 10:56:41;;;;;;;3.05;2.38;;;19.00;53.90;;;16.65;100.00;101381.75;4979831;28;20593;-61
2021/05/30 10:59:26;;;;;;;3.53;2.10;;;19.10;54.20;;;16.09;100.00;101373.47;4984766;28;20231;-61
2021/05/30 11:01:55;;;;;;;2.75;1.73;;;19.40;52.70;;;15.99;100.00;101375.47;4982899;28;20239;-61
2021/05/30 11:04:35;;;;;;;4.47;1.92;;;19.70;52.20;;;16.12;100.00;101380.38;4982809;28;20475;-62
2021/05/30 11:07:42;;;;;;;2.55;1.85;;;19.80;52.30;;;17.70;100.00;101375.16;4983271;28;20227;-62
2021/05/30 11:10:13;;;;;;;2.60;1.85;;;20.00;52.70;;;18.06;100.00;101365.41;4991678;28;20355;-62
2021/05/30 11:12:52;;;;;;;1.83;1.58;;;20.40;52.40;;;17.07;100.00;101382.31;4985403;28;21085;-61
2021/05/30 11:15:21;;;;;;;1.60;1.38;;;20.80;50.50;;;15.93;100.00;101372.63;4964769;28;20227;-62
2021/05/30 11:17:57;;;;;;;2.13;1.40;;;20.90;49.30;;;16.32;100.00;101375.53;4988373;28;20234;-62
2021/05/30 11:20:47;;;;;;;2.72;1.63;;;20.70;49.70;;;17.49;100.00;101373.88;4991506;28;20317;-61
2021/05/30 11:23:19;;;;;;;2.17;1.77;;;20.80;50.10;;;17.99;100.00;101364.47;4990112;28;20702;-62
2021/05/30 11:25:49;;;;;;;2.20;1.65;;;21.10;50.50;;;18.00;100.00;101365.31;4986746;28;20928;-61
2021/05/30 11:28:18;;;;;;;2.88;1.80;;;21.50;49.30;;;17.28;100.00;101370.09;4991028;28;20533;-61
2021/05/30 11:30:58;;;;;;;2.13;1.60;;;21.90;48.20;;;16.48;100.00;101364.69;4983895;28;20499;-61
2021/05/30 11:33:42;;;;;;;1.67;1.55;;;21.90;47.10;;;17.93;100.00;101367.88;4991484;28;21090;-63
2021/05/30 11:36:19;;;;;;;2.10;1.88;;;21.90;47.90;;;18.44;100.00;101368.16;4989386;28;20511;-61
2021/05/30 11:38:52;;;;;;;2.28;1.60;;;22.10;48.30;;;17.49;100.00;101367.63;4981898;28;20869;-63
2021/05/30 11:41:26;;;;;;;1.52;1.40;;;22.40;47.00;;;16.99;100.00;101368.00;4986146;28;20207;-61
2021/05/30 11:44:09;;;;;;;3.80;2.53;;;22.60;45.80;;;16.76;100.00;101373.28;4987678;28;20210;-61
2021/05/30 11:46:48;;;;;;;3.60;1.85;;;22.50;45.50;;;18.26;100.00;101371.22;4984526;28;20530;-61
2021/05/30 11:49:17;;;;;;;2.05;1.58;;;22.60;46.60;;;18.37;100.00;101362.66;4990873;28;20295;-61
2021/05/30 11:52:02;;;;;;;2.22;2.00;;;22.90;46.40;;;19.09;100.00;101360.22;4988302;28;20234;-61
2021/05/30 11:54:33;;;;;;;1.70;1.50;;;23.30;45.70;;;18.49;100.00;101357.63;4989422;28;20829;-60
2021/05/30 11:57:02;;;;;;;2.40;1.80;;;23.70;45.10;;;18.50;100.00;101345.75;4986627;28;20498;-62
2021/05/30 11:59:40;;;;;;;3.15;1.80;;;23.80;44.70;;;18.04;100.00;101353.09;4985964;28;20576;-61
2021/05/30 12:02:07;;;;;;;2.85;1.85;;;23.70;44.30;;;17.08;100.00;101356.97;4990434;28;20517;-61
2021/05/30 12:04:39;;;;;;;2.78;1.95;;;23.40;43.70;;;16.55;100.00;101354.91;4989864;28;20305;-62
2021/05/30 12:07:10;;;;;;;2.85;1.77;;;22.80;43.80;;;17.13;100.00;101353.75;4985803;28;20769;-62
2021/05/30 12:09:51;;;;;;;2.38;1.80;;;22.40;45.00;;;17.59;100.00;101363.66;4981618;28;20677;-62
2021/05/30 12:12:33;;;;;;;2.13;1.77;;;22.00;46.00;;;16.96;100.00;101355.66;4984117;28;20437;-61
2021/05/30 12:15:12;;;;;;;4.28;2.08;;;21.70;46.00;;;16.87;100.00;101360.25;4985071;28;20596;-61
2021/05/30 12:18:09;;;;;;;2.25;1.70;;;21.40;46.00;;;17.13;100.00;101353.75;4979813;28;20250;-61
2021/05/30 12:20:38;;;;;;;1.75;1.60;;;21.30;46.50;;;17.23;100.00;101363.34;4895731;28;20264;-61
2021/05/30 12:23:10;;;;;;;2.55;1.65;;;21.30;47.50;;;17.87;100.00;101358.63;4966479;28;20270;-62
2021/05/30 12:25:51;;;;;;;2.03;1.60;;;21.50;46.90;;;18.26;100.00;101357.66;4992880;28;20335;-62
2021/05/30 12:28:18;;;;;;;1.52;1.42;;;21.80;46.60;;;17.70;100.00;101354.34;4977860;28;20257;-62
2021/05/30 12:30:49;;;;;;;2.53;1.88;;;22.20;45.90;;;17.73;100.00;101345.88;4982741;28;20528;-62
2021/05/30 12:33:16;;;;;;;1.95;1.50;;;22.50;45.30;;;17.83;100.00;101351.88;4983071;28;20299;-62
2021/05/30 12:35:48;;;;;;;1.40;1.30;;;22.40;45.80;;;17.72;100.00;101355.00;4985084;28;20498;-61
2021/05/30 12:38:18;;;;;;;2.35;1.70;;;22.30;46.00;;;18.48;100.00;101356.78;4969806;28;20557;-64
2021/05/30 12:40:48;;;;;;;2.30;1.65;;;22.40;46.60;;;19.17;100.00;101338.41;4987251;28;20223;-62
2021/05/30 12:43:15;;;;;;;2.42;1.30;;;22.50;46.50;;;18.12;100.00;101350.31;4986768;28;20681;-62
2021/05/30 12:46:03;;;;;;;3.65;1.98;;;22.70;45.10;;;17.97;100.00;101350.28;4978649;28;20223;-63
2021/05/30 12:48:44;;;;;;;2.60;1.77;;;22.70;44.90;;;16.87;100.00;101345.91;4986026;28;20643;-62
2021/05/30 12:51:14;;;;;;;2.13;1.60;;;22.50;44.00;;;17.27;100.00;101339.50;4982909;28;20788;-62
2021/05/30 17:55:29;;;;;;;3.33;1.58;;;17.10;52.60;;;18.15;100.00;101191.00;4982774;28;20716;-62
